sensor_id;sensor_type;location;lat;lon;timestamp;P1;durP1;ratioP1;P2;durP2;ratioP2
75152;SDS011;63734;45.218;36.708;2023-04-24T00:00:10;8.60;;;3.67;;
75152;SDS011;63734;45.218;36.708;2023-04-24T00:02:41;8.85;;;3.88;;
75152;SDS011;63734;45.218;36.708;2023-04-24T00:05:11;5.07;;;3.38;;
75152;SDS011;63734;45.218;36.708;2023-04-24T00:07:39;7.07;;;4.47;;
75152;SDS011;63734;45.218;36.708;2023-04-24T00:10:06;5.65;;;3.80;;
75152;SDS011;63734;45.218;36.708;2023-04-24T00:12:32;5.82;;;3.35;;
75152;SDS011;63734;45.218;36.708;2023-04-24T00:14:58;6.90;;;4.75;;
75152;SDS011;63734;45.218;36.708;2023-04-24T00:17:24;6.93;;;3.80;;
75152;SDS011;63734;45.218;36.708;2023-04-24T00:19:50;5.20;;;3.80;;
75152;SDS011;63734;45.218;36.708;2023-04-24T00:22:16;5.95;;;3.15;;
75152;SDS011;63734;45.218;36.708;2023-04-24T00:24:43;7.93;;;4.13;;
75152;SDS011;63734;45.218;36.708;2023-04-24T00:27:09;8.35;;;4.97;;
75152;SDS011;63734;45.218;36.708;2023-04-24T00:29:34;8.85;;;4.30;;
75152;SDS011;63734;45.218;36.708;2023-04-24T00:32:00;8.45;;;3.60;;
75152;SDS011;63734;45.218;36.708;2023-04-24T00:34:26;7.60;;;3.30;;
75152;SDS011;63734;45.218;36.708;2023-04-24T00:36:52;4.15;;;2.90;;
75152;SDS011;63734;45.218;36.708;2023-04-24T00:39:19;7.63;;;3.65;;
75152;SDS011;63734;45.218;36.708;2023-04-24T00:41:45;3.97;;;2.60;;
75152;SDS011;63734;45.218;36.708;2023-04-24T00:44:12;7.30;;;3.67;;
75152;SDS011;63734;45.218;36.708;2023-04-24T00:46:38;3.22;;;2.28;;
75152;SDS011;63734;45.218;36.708;2023-04-24T00:49:05;4.97;;;3.40;;
75152;SDS011;63734;45.218;36.708;2023-04-24T00:51:33;4.63;;;3.05;;
75152;SDS011;63734;45.218;36.708;2023-04-24T00:54:00;5.80;;;3.13;;
75152;SDS011;63734;45.218;36.708;2023-04-24T00:56:27;4.40;;;2.90;;
75152;SDS011;63734;45.218;36.708;2023-04-24T00:58:54;5.78;;;3.45;;
75152;SDS011;63734;45.218;36.708;2023-04-24T01:01:21;4.43;;;3.53;;
75152;SDS011;63734;45.218;36.708;2023-04-24T01:03:48;6.57;;;4.20;;
75152;SDS011;63734;45.218;36.708;2023-04-24T01:06:16;7.80;;;3.90;;
75152;SDS011;63734;45.218;36.708;2023-04-24T01:08:43;4.78;;;3.67;;
75152;SDS011;63734;45.218;36.708;2023-04-24T01:11:11;5.30;;;3.03;;
75152;SDS011;63734;45.218;36.708;2023-04-24T01:13:37;10.50;;;4.00;;
75152;SDS011;63734;45.218;36.708;2023-04-24T01:16:03;5.38;;;3.25;;
75152;SDS011;63734;45.218;36.708;2023-04-24T01:18:29;5.53;;;3.42;;
75152;SDS011;63734;45.218;36.708;2023-04-24T01:20:59;5.45;;;3.05;;
75152;SDS011;63734;45.218;36.708;2023-04-24T01:23:30;5.97;;;3.40;;
75152;SDS011;63734;45.218;36.708;2023-04-24T01:25:56;5.28;;;3.70;;
75152;SDS011;63734;45.218;36.708;2023-04-24T01:28:24;5.68;;;3.17;;
75152;SDS011;63734;45.218;36.708;2023-04-24T01:30:50;4.57;;;3.10;;
75152;SDS011;63734;45.218;36.708;2023-04-24T01:33:16;5.75;;;3.65;;
75152;SDS011;63734;45.218;36.708;2023-04-24T01:35:43;4.65;;;3.35;;
75152;SDS011;63734;45.218;36.708;2023-04-24T01:38:09;6.30;;;3.80;;
75152;SDS011;63734;45.218;36.708;2023-04-24T01:40:35;5.72;;;2.53;;
75152;SDS011;63734;45.218;36.708;2023-04-24T01:43:01;5.03;;;2.88;;
75152;SDS011;63734;45.218;36.708;2023-04-24T01:45:29;7.25;;;3.25;;
75152;SDS011;63734;45.218;36.708;2023-04-24T01:47:55;5.53;;;3.28;;
75152;SDS011;63734;45.218;36.708;2023-04-24T01:50:23;7.15;;;3.72;;
75152;SDS011;63734;45.218;36.708;2023-04-24T01:52:48;4.28;;;3.22;;
75152;SDS011;63734;45.218;36.708;2023-04-24T01:55:15;6.88;;;3.53;;
75152;SDS011;63734;45.218;36.708;2023-04-24T01:57:40;4.60;;;3.50;;
75152;SDS011;63734;45.218;36.708;2023-04-24T02:00:07;8.43;;;2.78;;
75152;SDS011;63734;45.218;36.708;2023-04-24T02:02:39;6.57;;;3.38;;
75152;SDS011;63734;45.218;36.708;2023-04-24T02:05:06;4.55;;;3.42;;
75152;SDS011;63734;45.218;36.708;2023-04-24T02:07:35;7.53;;;3.65;;
75152;SDS011;63734;45.218;36.708;2023-04-24T02:10:01;6.25;;;3.10;;
75152;SDS011;63734;45.218;36.708;2023-04-24T02:12:29;4.60;;;3.15;;
75152;SDS011;63734;45.218;36.708;2023-04-24T02:14:55;4.22;;;2.67;;
75152;SDS011;63734;45.218;36.708;2023-04-24T02:17:21;6.68;;;3.80;;
75152;SDS011;63734;45.218;36.708;2023-04-24T02:19:47;6.10;;;3.80;;
75152;SDS011;63734;45.218;36.708;2023-04-24T02:22:13;5.35;;;3.25;;
75152;SDS011;63734;45.218;36.708;2023-04-24T02:24:39;5.47;;;3.17;;
75152;SDS011;63734;45.218;36.708;2023-04-24T02:27:05;3.85;;;2.42;;
75152;SDS011;63734;45.218;36.708;2023-04-24T02:29:31;6.47;;;3.15;;
75152;SDS011;63734;45.218;36.708;2023-04-24T02:31:58;4.15;;;3.22;;
75152;SDS011;63734;45.218;36.708;2023-04-24T02:34:24;4.70;;;3.22;;
75152;SDS011;63734;45.218;36.708;2023-04-24T02:36:50;5.55;;;2.85;;
75152;SDS011;63734;45.218;36.708;2023-04-24T02:39:16;3.40;;;2.50;;
75152;SDS011;63734;45.218;36.708;2023-04-24T02:41:45;6.90;;;3.55;;
75152;SDS011;63734;45.218;36.708;2023-04-24T02:44:11;5.57;;;3.03;;
75152;SDS011;63734;45.218;36.708;2023-04-24T02:46:37;6.03;;;3.22;;
75152;SDS011;63734;45.218;36.708;2023-04-24T02:49:03;3.22;;;2.60;;
75152;SDS011;63734;45.218;36.708;2023-04-24T02:51:29;6.13;;;3.53;;
75152;SDS011;63734;45.218;36.708;2023-04-24T02:53:56;7.35;;;3.35;;
75152;SDS011;63734;45.218;36.708;2023-04-24T02:56:22;6.10;;;3.50;;
75152;SDS011;63734;45.218;36.708;2023-04-24T02:58:48;5.60;;;3.72;;
75152;SDS011;63734;45.218;36.708;2023-04-24T03:01:14;3.15;;;2.50;;
75152;SDS011;63734;45.218;36.708;2023-04-24T03:03:40;6.85;;;3.00;;
75152;SDS011;63734;45.218;36.708;2023-04-24T03:06:06;6.70;;;3.10;;
75152;SDS011;63734;45.218;36.708;2023-04-24T03:08:33;3.10;;;2.33;;
75152;SDS011;63734;45.218;36.708;2023-04-24T03:10:59;9.93;;;3.40;;
75152;SDS011;63734;45.218;36.708;2023-04-24T03:13:25;5.03;;;3.13;;
75152;SDS011;63734;45.218;36.708;2023-04-24T03:15:51;5.50;;;2.75;;
75152;SDS011;63734;45.218;36.708;2023-04-24T03:18:18;3.17;;;2.22;;
75152;SDS011;63734;45.218;36.708;2023-04-24T03:20:46;5.28;;;2.47;;
75152;SDS011;63734;45.218;36.708;2023-04-24T03:23:13;5.88;;;2.92;;
75152;SDS011;63734;45.218;36.708;2023-04-24T03:25:39;3.65;;;2.90;;
75152;SDS011;63734;45.218;36.708;2023-04-24T03:28:06;4.03;;;3.00;;
75152;SDS011;63734;45.218;36.708;2023-04-24T03:30:38;5.35;;;2.80;;
75152;SDS011;63734;45.218;36.708;2023-04-24T03:33:05;3.97;;;2.85;;
75152;SDS011;63734;45.218;36.708;2023-04-24T03:35:35;4.35;;;2.63;;
75152;SDS011;63734;45.218;36.708;2023-04-24T03:38:04;3.28;;;2.22;;
75152;SDS011;63734;45.218;36.708;2023-04-24T03:40:48;4.72;;;2.55;;
75152;SDS011;63734;45.218;36.708;2023-04-24T03:43:37;4.68;;;3.03;;
75152;SDS011;63734;45.218;36.708;2023-04-24T03:46:04;6.68;;;2.90;;
75152;SDS011;63734;45.218;36.708;2023-04-24T03:48:34;4.25;;;2.38;;
75152;SDS011;63734;45.218;36.708;2023-04-24T03:51:01;6.82;;;2.63;;
75152;SDS011;63734;45.218;36.708;2023-04-24T03:53:29;3.33;;;2.53;;
75152;SDS011;63734;45.218;36.708;2023-04-24T03:55:56;3.33;;;2.35;;
75152;SDS011;63734;45.218;36.708;2023-04-24T03:58:22;10.57;;;2.60;;
75152;SDS011;63734;45.218;36.708;2023-04-24T04:00:48;3.75;;;2.40;;
75152;SDS011;63734;45.218;36.708;2023-04-24T04:03:38;5.53;;;2.50;;
75152;SDS011;63734;45.218;36.708;2023-04-24T04:06:04;3.70;;;2.45;;
75152;SDS011;63734;45.218;36.708;2023-04-24T04:08:30;3.35;;;2.45;;
75152;SDS011;63734;45.218;36.708;2023-04-24T04:10:57;4.07;;;2.55;;
75152;SDS011;63734;45.218;36.708;2023-04-24T04:13:23;4.47;;;2.95;;
75152;SDS011;63734;45.218;36.708;2023-04-24T04:15:49;5.60;;;2.85;;
75152;SDS011;63734;45.218;36.708;2023-04-24T04:18:15;3.40;;;2.25;;
75152;SDS011;63734;45.218;36.708;2023-04-24T04:20:42;3.50;;;2.30;;
75152;SDS011;63734;45.218;36.708;2023-04-24T04:23:10;2.97;;;1.50;;
75152;SDS011;63734;45.218;36.708;2023-04-24T04:26:03;4.03;;;2.15;;
75152;SDS011;63734;45.218;36.708;2023-04-24T04:28:42;3.33;;;2.20;;
75152;SDS011;63734;45.218;36.708;2023-04-24T04:31:10;3.97;;;2.30;;
75152;SDS011;63734;45.218;36.708;2023-04-24T04:33:36;3.15;;;1.92;;
75152;SDS011;63734;45.218;36.708;2023-04-24T04:36:06;2.78;;;1.90;;
75152;SDS011;63734;45.218;36.708;2023-04-24T04:38:37;3.13;;;1.70;;
75152;SDS011;63734;45.218;36.708;2023-04-24T04:41:11;1.58;;;1.45;;
75152;SDS011;63734;45.218;36.708;2023-04-24T04:43:37;3.10;;;1.60;;
75152;SDS011;63734;45.218;36.708;2023-04-24T04:46:06;2.30;;;1.52;;
75152;SDS011;63734;45.218;36.708;2023-04-24T04:48:53;2.33;;;1.75;;
75152;SDS011;63734;45.218;36.708;2023-04-24T04:51:19;3.03;;;1.60;;
75152;SDS011;63734;45.218;36.708;2023-04-24T04:53:46;2.75;;;1.60;;
75152;SDS011;63734;45.218;36.708;2023-04-24T04:56:12;3.38;;;2.10;;
75152;SDS011;63734;45.218;36.708;2023-04-24T04:58:40;1.70;;;1.45;;
75152;SDS011;63734;45.218;36.708;2023-04-24T05:01:09;1.60;;;1.50;;
75152;SDS011;63734;45.218;36.708;2023-04-24T05:03:40;2.45;;;1.70;;
75152;SDS011;63734;45.218;36.708;2023-04-24T05:06:09;3.22;;;1.58;;
75152;SDS011;63734;45.218;36.708;2023-04-24T05:08:37;3.42;;;1.70;;
75152;SDS011;63734;45.218;36.708;2023-04-24T05:11:07;1.88;;;1.58;;
75152;SDS011;63734;45.218;36.708;2023-04-24T05:13:33;1.45;;;1.33;;
75152;SDS011;63734;45.218;36.708;2023-04-24T05:16:01;4.28;;;1.70;;
75152;SDS011;63734;45.218;36.708;2023-04-24T05:18:28;3.25;;;1.70;;
75152;SDS011;63734;45.218;36.708;2023-04-24T05:20:55;2.80;;;1.60;;
75152;SDS011;63734;45.218;36.708;2023-04-24T05:23:21;3.33;;;1.73;;
75152;SDS011;63734;45.218;36.708;2023-04-24T05:25:51;3.42;;;1.77;;
75152;SDS011;63734;45.218;36.708;2023-04-24T05:28:18;3.08;;;1.85;;
75152;SDS011;63734;45.218;36.708;2023-04-24T05:30:52;2.30;;;1.80;;
75152;SDS011;63734;45.218;36.708;2023-04-24T05:33:19;2.65;;;1.70;;
75152;SDS011;63734;45.218;36.708;2023-04-24T05:35:45;4.20;;;2.03;;
75152;SDS011;63734;45.218;36.708;2023-04-24T05:38:12;2.30;;;1.90;;
75152;SDS011;63734;45.218;36.708;2023-04-24T05:40:39;4.38;;;2.42;;
75152;SDS011;63734;45.218;36.708;2023-04-24T05:43:05;2.08;;;1.42;;
75152;SDS011;63734;45.218;36.708;2023-04-24T05:45:31;5.60;;;2.08;;
75152;SDS011;63734;45.218;36.708;2023-04-24T05:47:57;3.80;;;2.20;;
75152;SDS011;63734;45.218;36.708;2023-04-24T05:50:23;4.60;;;2.22;;
75152;SDS011;63734;45.218;36.708;2023-04-24T05:52:49;5.38;;;2.22;;
75152;SDS011;63734;45.218;36.708;2023-04-24T05:55:24;3.03;;;2.00;;
75152;SDS011;63734;45.218;36.708;2023-04-24T05:57:51;3.50;;;2.10;;
75152;SDS011;63734;45.218;36.708;2023-04-24T06:00:18;2.55;;;1.98;;
75152;SDS011;63734;45.218;36.708;2023-04-24T06:02:51;5.38;;;2.08;;
75152;SDS011;63734;45.218;36.708;2023-04-24T06:05:19;3.40;;;2.42;;
75152;SDS011;63734;45.218;36.708;2023-04-24T06:07:45;5.80;;;2.17;;
75152;SDS011;63734;45.218;36.708;2023-04-24T06:10:11;4.38;;;2.05;;
75152;SDS011;63734;45.218;36.708;2023-04-24T06:12:43;5.85;;;2.70;;
75152;SDS011;63734;45.218;36.708;2023-04-24T06:15:15;4.72;;;2.50;;
75152;SDS011;63734;45.218;36.708;2023-04-24T06:17:49;2.97;;;2.15;;
75152;SDS011;63734;45.218;36.708;2023-04-24T06:20:17;2.20;;;2.00;;
75152;SDS011;63734;45.218;36.708;2023-04-24T06:22:42;3.38;;;1.98;;
75152;SDS011;63734;45.218;36.708;2023-04-24T06:25:09;5.63;;;2.70;;
75152;SDS011;63734;45.218;36.708;2023-04-24T06:27:35;2.90;;;1.90;;
75152;SDS011;63734;45.218;36.708;2023-04-24T06:30:02;6.65;;;1.95;;
75152;SDS011;63734;45.218;36.708;2023-04-24T06:32:28;3.30;;;2.00;;
75152;SDS011;63734;45.218;36.708;2023-04-24T06:34:54;5.05;;;2.15;;
75152;SDS011;63734;45.218;36.708;2023-04-24T06:49:21;4.90;;;2.10;;
75152;SDS011;63734;45.218;36.708;2023-04-24T06:51:47;3.38;;;2.00;;
75152;SDS011;63734;45.218;36.708;2023-04-24T06:54:13;4.03;;;2.05;;
75152;SDS011;63734;45.218;36.708;2023-04-24T06:56:39;2.95;;;2.35;;
75152;SDS011;63734;45.218;36.708;2023-04-24T06:59:05;4.40;;;1.83;;
75152;SDS011;63734;45.218;36.708;2023-04-24T07:01:30;4.65;;;2.40;;
75152;SDS011;63734;45.218;36.708;2023-04-24T07:03:56;7.75;;;2.30;;
75152;SDS011;63734;45.218;36.708;2023-04-24T07:06:22;3.53;;;2.10;;
75152;SDS011;63734;45.218;36.708;2023-04-24T07:08:49;4.13;;;1.85;;
75152;SDS011;63734;45.218;36.708;2023-04-24T07:11:15;2.35;;;1.95;;
75152;SDS011;63734;45.218;36.708;2023-04-24T07:13:41;4.57;;;1.75;;
75152;SDS011;63734;45.218;36.708;2023-04-24T07:16:07;4.13;;;2.25;;
75152;SDS011;63734;45.218;36.708;2023-04-24T07:18:34;6.32;;;2.40;;
75152;SDS011;63734;45.218;36.708;2023-04-24T07:21:00;6.47;;;2.20;;
75152;SDS011;63734;45.218;36.708;2023-04-24T07:23:26;4.78;;;2.50;;
75152;SDS011;63734;45.218;36.708;2023-04-24T07:25:52;2.95;;;2.17;;
75152;SDS011;63734;45.218;36.708;2023-04-24T07:28:18;4.00;;;2.13;;
75152;SDS011;63734;45.218;36.708;2023-04-24T07:30:43;2.90;;;2.20;;
75152;SDS011;63734;45.218;36.708;2023-04-24T07:33:09;6.70;;;2.13;;
75152;SDS011;63734;45.218;36.708;2023-04-24T07:35:38;3.70;;;2.45;;
75152;SDS011;63734;45.218;36.708;2023-04-24T07:38:04;7.25;;;2.10;;
75152;SDS011;63734;45.218;36.708;2023-04-24T07:40:30;6.82;;;2.00;;
75152;SDS011;63734;45.218;36.708;2023-04-24T07:42:56;6.28;;;2.13;;
75152;SDS011;63734;45.218;36.708;2023-04-24T07:45:22;3.40;;;2.40;;
75152;SDS011;63734;45.218;36.708;2023-04-24T07:47:49;5.72;;;2.13;;
75152;SDS011;63734;45.218;36.708;2023-04-24T07:50:16;3.88;;;1.95;;
75152;SDS011;63734;45.218;36.708;2023-04-24T07:52:42;6.85;;;2.20;;
75152;SDS011;63734;45.218;36.708;2023-04-24T07:55:08;5.65;;;2.42;;
75152;SDS011;63734;45.218;36.708;2023-04-24T07:57:33;3.85;;;1.73;;
75152;SDS011;63734;45.218;36.708;2023-04-24T08:00:00;6.65;;;2.10;;
75152;SDS011;63734;45.218;36.708;2023-04-24T08:02:26;3.80;;;1.65;;
75152;SDS011;63734;45.218;36.708;2023-04-24T08:04:52;3.97;;;2.00;;
75152;SDS011;63734;45.218;36.708;2023-04-24T08:07:21;1.85;;;1.42;;
75152;SDS011;63734;45.218;36.708;2023-04-24T08:09:47;1.90;;;1.70;;
75152;SDS011;63734;45.218;36.708;2023-04-24T08:12:13;6.35;;;2.35;;
75152;SDS011;63734;45.218;36.708;2023-04-24T08:14:39;2.30;;;1.60;;
75152;SDS011;63734;45.218;36.708;2023-04-24T08:17:05;6.10;;;2.10;;
75152;SDS011;63734;45.218;36.708;2023-04-24T08:19:31;2.55;;;1.83;;
75152;SDS011;63734;45.218;36.708;2023-04-24T08:21:57;2.95;;;1.70;;
75152;SDS011;63734;45.218;36.708;2023-04-24T08:24:23;3.97;;;1.90;;
75152;SDS011;63734;45.218;36.708;2023-04-24T08:26:48;8.43;;;2.10;;
75152;SDS011;63734;45.218;36.708;2023-04-24T08:29:19;5.28;;;2.47;;
75152;SDS011;63734;45.218;36.708;2023-04-24T08:31:45;4.72;;;2.10;;
75152;SDS011;63734;45.218;36.708;2023-04-24T08:34:11;2.50;;;1.75;;
75152;SDS011;63734;45.218;36.708;2023-04-24T08:36:37;6.95;;;2.20;;
75152;SDS011;63734;45.218;36.708;2023-04-24T08:39:03;3.63;;;1.70;;
75152;SDS011;63734;45.218;36.708;2023-04-24T08:41:29;3.83;;;2.08;;
75152;SDS011;63734;45.218;36.708;2023-04-24T08:43:56;6.00;;;2.10;;
75152;SDS011;63734;45.218;36.708;2023-04-24T08:46:24;4.60;;;2.03;;
75152;SDS011;63734;45.218;36.708;2023-04-24T08:48:50;2.50;;;1.73;;
75152;SDS011;63734;45.218;36.708;2023-04-24T08:51:17;2.35;;;1.73;;
75152;SDS011;63734;45.218;36.708;2023-04-24T08:53:45;5.72;;;2.30;;
75152;SDS011;63734;45.218;36.708;2023-04-24T08:56:11;2.67;;;2.47;;
75152;SDS011;63734;45.218;36.708;2023-04-24T08:58:38;3.97;;;1.80;;
75152;SDS011;63734;45.218;36.708;2023-04-24T09:01:04;3.35;;;1.83;;
75152;SDS011;63734;45.218;36.708;2023-04-24T09:03:31;4.90;;;1.92;;
75152;SDS011;63734;45.218;36.708;2023-04-24T09:05:58;6.05;;;1.80;;
75152;SDS011;63734;45.218;36.708;2023-04-24T09:08:25;4.85;;;2.38;;
75152;SDS011;63734;45.218;36.708;2023-04-24T09:10:54;3.92;;;1.92;;
75152;SDS011;63734;45.218;36.708;2023-04-24T09:13:20;2.90;;;1.63;;
75152;SDS011;63734;45.218;36.708;2023-04-24T09:15:46;4.25;;;1.80;;
75152;SDS011;63734;45.218;36.708;2023-04-24T09:18:12;2.97;;;1.85;;
75152;SDS011;63734;45.218;36.708;2023-04-24T09:20:57;3.55;;;1.77;;
75152;SDS011;63734;45.218;36.708;2023-04-24T09:23:26;3.47;;;1.95;;
75152;SDS011;63734;45.218;36.708;2023-04-24T09:25:57;2.97;;;2.20;;
75152;SDS011;63734;45.218;36.708;2023-04-24T09:28:26;2.95;;;1.45;;
75152;SDS011;63734;45.218;36.708;2023-04-24T09:31:02;5.80;;;2.20;;
75152;SDS011;63734;45.218;36.708;2023-04-24T09:33:29;5.40;;;2.30;;
75152;SDS011;63734;45.218;36.708;2023-04-24T09:35:55;3.58;;;1.60;;
75152;SDS011;63734;45.218;36.708;2023-04-24T09:38:37;5.20;;;2.25;;
75152;SDS011;63734;45.218;36.708;2023-04-24T09:41:07;4.20;;;1.70;;
75152;SDS011;63734;45.218;36.708;2023-04-24T09:43:34;2.75;;;1.70;;
75152;SDS011;63734;45.218;36.708;2023-04-24T09:46:07;4.53;;;2.90;;
75152;SDS011;63734;45.218;36.708;2023-04-24T09:48:35;6.43;;;3.58;;
75152;SDS011;63734;45.218;36.708;2023-04-24T09:51:03;4.50;;;2.40;;
75152;SDS011;63734;45.218;36.708;2023-04-24T09:53:32;5.28;;;2.30;;
75152;SDS011;63734;45.218;36.708;2023-04-24T09:56:02;5.28;;;2.50;;
75152;SDS011;63734;45.218;36.708;2023-04-24T09:58:32;2.72;;;2.10;;
75152;SDS011;63734;45.218;36.708;2023-04-24T10:01:01;3.20;;;1.67;;
75152;SDS011;63734;45.218;36.708;2023-04-24T10:03:29;4.35;;;2.67;;
75152;SDS011;63734;45.218;36.708;2023-04-24T10:06:00;1.90;;;1.70;;
75152;SDS011;63734;45.218;36.708;2023-04-24T10:08:26;3.80;;;1.90;;
75152;SDS011;63734;45.218;36.708;2023-04-24T10:10:59;7.63;;;1.90;;
75152;SDS011;63734;45.218;36.708;2023-04-24T10:13:26;2.65;;;2.05;;
75152;SDS011;63734;45.218;36.708;2023-04-24T10:15:53;4.53;;;2.38;;
75152;SDS011;63734;45.218;36.708;2023-04-24T10:18:20;2.88;;;1.92;;
75152;SDS011;63734;45.218;36.708;2023-04-24T10:20:46;3.85;;;1.60;;
75152;SDS011;63734;45.218;36.708;2023-04-24T10:23:13;7.00;;;2.15;;
75152;SDS011;63734;45.218;36.708;2023-04-24T10:25:39;2.42;;;1.67;;
75152;SDS011;63734;45.218;36.708;2023-04-24T10:28:06;3.65;;;1.70;;
75152;SDS011;63734;45.218;36.708;2023-04-24T10:30:33;2.33;;;1.60;;
75152;SDS011;63734;45.218;36.708;2023-04-24T10:33:06;2.30;;;1.58;;
75152;SDS011;63734;45.218;36.708;2023-04-24T10:35:34;2.17;;;1.80;;
75152;SDS011;63734;45.218;36.708;2023-04-24T10:38:07;2.75;;;1.77;;
75152;SDS011;63734;45.218;36.708;2023-04-24T10:40:36;2.77;;;1.97;;
75152;SDS011;63734;45.218;36.708;2023-04-24T10:43:03;1.88;;;1.40;;
75152;SDS011;63734;45.218;36.708;2023-04-24T10:45:33;2.42;;;1.45;;
75152;SDS011;63734;45.218;36.708;2023-04-24T10:48:00;1.77;;;1.58;;
75152;SDS011;63734;45.218;36.708;2023-04-24T10:50:28;3.03;;;1.30;;
75152;SDS011;63734;45.218;36.708;2023-04-24T10:53:07;2.25;;;1.58;;
75152;SDS011;63734;45.218;36.708;2023-04-24T10:58:16;3.47;;;2.20;;
75152;SDS011;63734;45.218;36.708;2023-04-24T11:00:57;4.82;;;1.92;;
75152;SDS011;63734;45.218;36.708;2023-04-24T11:03:28;2.78;;;1.65;;
75152;SDS011;63734;45.218;36.708;2023-04-24T11:05:59;2.33;;;1.45;;
75152;SDS011;63734;45.218;36.708;2023-04-24T11:08:29;4.83;;;2.03;;
75152;SDS011;63734;45.218;36.708;2023-04-24T11:11:09;6.38;;;1.40;;
75152;SDS011;63734;45.218;36.708;2023-04-24T11:16:20;4.72;;;2.08;;
75152;SDS011;63734;45.218;36.708;2023-04-24T11:18:51;2.67;;;2.03;;
75152;SDS011;63734;45.218;36.708;2023-04-24T11:21:25;3.35;;;1.80;;
75152;SDS011;63734;45.218;36.708;2023-04-24T11:23:58;5.25;;;1.65;;
75152;SDS011;63734;45.218;36.708;2023-04-24T11:26:24;5.35;;;1.92;;
75152;SDS011;63734;45.218;36.708;2023-04-24T11:28:55;4.15;;;2.42;;
75152;SDS011;63734;45.218;36.708;2023-04-24T11:34:05;3.47;;;2.20;;
75152;SDS011;63734;45.218;36.708;2023-04-24T11:36:33;4.68;;;1.83;;
75152;SDS011;63734;45.218;36.708;2023-04-24T11:39:00;5.70;;;2.53;;
75152;SDS011;63734;45.218;36.708;2023-04-24T11:41:27;4.43;;;2.22;;
75152;SDS011;63734;45.218;36.708;2023-04-24T11:43:54;3.42;;;1.83;;
75152;SDS011;63734;45.218;36.708;2023-04-24T11:46:21;1.65;;;1.52;;
75152;SDS011;63734;45.218;36.708;2023-04-24T11:48:47;2.15;;;1.67;;
75152;SDS011;63734;45.218;36.708;2023-04-24T11:51:14;2.75;;;1.70;;
75152;SDS011;63734;45.218;36.708;2023-04-24T11:53:40;2.83;;;1.98;;
75152;SDS011;63734;45.218;36.708;2023-04-24T11:56:06;7.35;;;2.58;;
75152;SDS011;63734;45.218;36.708;2023-04-24T11:58:35;3.38;;;1.58;;
75152;SDS011;63734;45.218;36.708;2023-04-24T12:01:01;2.83;;;1.75;;
75152;SDS011;63734;45.218;36.708;2023-04-24T12:03:28;6.57;;;3.58;;
75152;SDS011;63734;45.218;36.708;2023-04-24T12:06:07;5.22;;;2.38;;
75152;SDS011;63734;45.218;36.708;2023-04-24T12:08:34;4.07;;;2.75;;
75152;SDS011;63734;45.218;36.708;2023-04-24T12:11:00;3.65;;;2.10;;
75152;SDS011;63734;45.218;36.708;2023-04-24T12:13:27;3.58;;;1.92;;
75152;SDS011;63734;45.218;36.708;2023-04-24T12:15:53;2.80;;;1.95;;
75152;SDS011;63734;45.218;36.708;2023-04-24T12:18:22;4.43;;;2.40;;
75152;SDS011;63734;45.218;36.708;2023-04-24T12:20:48;3.08;;;2.00;;
75152;SDS011;63734;45.218;36.708;2023-04-24T12:23:15;1.50;;;1.40;;
75152;SDS011;63734;45.218;36.708;2023-04-24T12:25:41;3.83;;;2.20;;
75152;SDS011;63734;45.218;36.708;2023-04-24T12:28:11;4.40;;;2.00;;
75152;SDS011;63734;45.218;36.708;2023-04-24T12:30:39;4.68;;;1.90;;
75152;SDS011;63734;45.218;36.708;2023-04-24T12:33:09;5.18;;;2.40;;
75152;SDS011;63734;45.218;36.708;2023-04-24T12:35:35;3.60;;;2.20;;
75152;SDS011;63734;45.218;36.708;2023-04-24T12:38:44;4.80;;;2.50;;
75152;SDS011;63734;45.218;36.708;2023-04-24T12:41:08;4.60;;;2.30;;
75152;SDS011;63734;45.218;36.708;2023-04-24T12:43:35;3.60;;;1.88;;
75152;SDS011;63734;45.218;36.708;2023-04-24T12:46:01;2.53;;;1.90;;
75152;SDS011;63734;45.218;36.708;2023-04-24T12:48:28;2.70;;;1.60;;
75152;SDS011;63734;45.218;36.708;2023-04-24T12:50:57;3.13;;;1.77;;
75152;SDS011;63734;45.218;36.708;2023-04-24T12:53:26;4.82;;;1.73;;
75152;SDS011;63734;45.218;36.708;2023-04-24T12:55:54;3.25;;;1.80;;
75152;SDS011;63734;45.218;36.708;2023-04-24T12:58:21;1.63;;;1.50;;
75152;SDS011;63734;45.218;36.708;2023-04-24T13:00:47;4.88;;;1.70;;
75152;SDS011;63734;45.218;36.708;2023-04-24T13:03:13;2.75;;;1.90;;
75152;SDS011;63734;45.218;36.708;2023-04-24T13:05:41;3.78;;;1.40;;
75152;SDS011;63734;45.218;36.708;2023-04-24T13:08:08;2.42;;;1.60;;
75152;SDS011;63734;45.218;36.708;2023-04-24T13:10:34;2.22;;;1.60;;
75152;SDS011;63734;45.218;36.708;2023-04-24T13:13:00;2.25;;;1.40;;
75152;SDS011;63734;45.218;36.708;2023-04-24T13:15:26;2.08;;;1.80;;
75152;SDS011;63734;45.218;36.708;2023-04-24T13:17:52;2.25;;;1.60;;
75152;SDS011;63734;45.218;36.708;2023-04-24T13:20:18;2.03;;;1.40;;
75152;SDS011;63734;45.218;36.708;2023-04-24T13:22:44;1.50;;;1.40;;
75152;SDS011;63734;45.218;36.708;2023-04-24T13:25:10;2.10;;;1.23;;
75152;SDS011;63734;45.218;36.708;2023-04-24T13:27:38;1.38;;;1.20;;
75152;SDS011;63734;45.218;36.708;2023-04-24T13:30:04;1.67;;;1.40;;
75152;SDS011;63734;45.218;36.708;2023-04-24T13:32:32;4.15;;;1.98;;
75152;SDS011;63734;45.218;36.708;2023-04-24T13:34:58;3.30;;;1.60;;
75152;SDS011;63734;45.218;36.708;2023-04-24T13:37:24;1.95;;;1.30;;
75152;SDS011;63734;45.218;36.708;2023-04-24T13:39:50;2.40;;;1.80;;
75152;SDS011;63734;45.218;36.708;2023-04-24T13:42:16;3.88;;;1.45;;
75152;SDS011;63734;45.218;36.708;2023-04-24T13:44:43;2.80;;;1.67;;
75152;SDS011;63734;45.218;36.708;2023-04-24T13:47:09;6.68;;;2.22;;
75152;SDS011;63734;45.218;36.708;2023-04-24T13:49:35;1.85;;;1.60;;
75152;SDS011;63734;45.218;36.708;2023-04-24T13:52:01;2.13;;;1.75;;
75152;SDS011;63734;45.218;36.708;2023-04-24T13:54:28;3.15;;;1.60;;
75152;SDS011;63734;45.218;36.708;2023-04-24T13:56:57;1.80;;;1.70;;
75152;SDS011;63734;45.218;36.708;2023-04-24T13:59:23;2.00;;;1.38;;
75152;SDS011;63734;45.218;36.708;2023-04-24T14:01:50;1.40;;;1.30;;
75152;SDS011;63734;45.218;36.708;2023-04-24T14:04:16;3.45;;;1.55;;
75152;SDS011;63734;45.218;36.708;2023-04-24T14:06:42;4.25;;;1.85;;
75152;SDS011;63734;45.218;36.708;2023-04-24T14:09:08;2.75;;;1.70;;
75152;SDS011;63734;45.218;36.708;2023-04-24T14:11:34;1.40;;;1.30;;
75152;SDS011;63734;45.218;36.708;2023-04-24T14:14:00;2.03;;;1.60;;
75152;SDS011;63734;45.218;36.708;2023-04-24T14:16:26;1.30;;;1.20;;
75152;SDS011;63734;45.218;36.708;2023-04-24T14:18:53;2.85;;;1.40;;
75152;SDS011;63734;45.218;36.708;2023-04-24T14:21:20;1.85;;;1.67;;
75152;SDS011;63734;45.218;36.708;2023-04-24T14:23:46;2.25;;;1.52;;
75152;SDS011;63734;45.218;36.708;2023-04-24T14:26:11;4.88;;;1.35;;
75152;SDS011;63734;45.218;36.708;2023-04-24T14:28:37;2.47;;;1.48;;
75152;SDS011;63734;45.218;36.708;2023-04-24T14:31:03;2.92;;;1.67;;
75152;SDS011;63734;45.218;36.708;2023-04-24T14:33:29;3.47;;;1.70;;
75152;SDS011;63734;45.218;36.708;2023-04-24T14:35:56;2.10;;;1.75;;
75152;SDS011;63734;45.218;36.708;2023-04-24T14:38:22;2.92;;;2.08;;
75152;SDS011;63734;45.218;36.708;2023-04-24T14:40:48;2.30;;;1.85;;
75152;SDS011;63734;45.218;36.708;2023-04-24T14:43:14;7.18;;;2.10;;
75152;SDS011;63734;45.218;36.708;2023-04-24T14:45:40;5.13;;;2.40;;
75152;SDS011;63734;45.218;36.708;2023-04-24T14:48:06;3.90;;;2.45;;
75152;SDS011;63734;45.218;36.708;2023-04-24T14:50:33;2.60;;;1.80;;
75152;SDS011;63734;45.218;36.708;2023-04-24T14:52:59;3.60;;;1.83;;
75152;SDS011;63734;45.218;36.708;2023-04-24T14:55:27;3.70;;;2.08;;